createdAt,value
2018-11-23T00:00:12.546Z,25.37
2018-11-23T00:02:57.971Z,24.80
2018-11-23T00:05:43.209Z,26.03
2018-11-23T00:08:28.427Z,26.70
2018-11-23T00:10:56.997Z,27.60
2018-11-23T00:13:25.431Z,24.67
2018-11-23T00:16:10.569Z,25.27
2018-11-23T00:18:39.189Z,25.90
2018-11-23T00:21:07.753Z,23.17
2018-11-23T00:23:36.468Z,24.90
2018-11-23T00:26:05.267Z,23.53
2018-11-23T00:28:33.824Z,23.30
2018-11-23T00:31:02.301Z,24.57
2018-11-23T00:33:30.884Z,22.97
2018-11-23T00:35:59.313Z,23.07
2018-11-23T00:38:27.854Z,23.83
2018-11-23T00:40:56.279Z,27.13
2018-11-23T00:43:24.831Z,26.30
2018-11-23T00:45:53.386Z,27.27
2018-11-23T00:48:21.970Z,25.87
2018-11-23T00:50:50.490Z,26.03
2018-11-23T00:53:19.280Z,28.53
2018-11-23T00:55:47.865Z,25.80
2018-11-23T00:58:16.653Z,26.80
2018-11-23T01:00:45.192Z,26.60
2018-11-23T01:03:13.651Z,25.27
2018-11-23T01:05:42.773Z,26.90
2018-11-23T01:08:13.184Z,25.57
2018-11-23T01:10:41.845Z,27.80
2018-11-23T01:13:10.521Z,27.83
2018-11-23T01:15:39.434Z,26.73
2018-11-23T01:18:08.152Z,27.90
2018-11-23T01:20:36.778Z,27.77
2018-11-23T01:23:05.373Z,28.27
2018-11-23T01:25:33.908Z,27.83
2018-11-23T01:28:02.581Z,25.80
2018-11-23T01:30:32.253Z,27.17
2018-11-23T01:33:00.923Z,27.03
2018-11-23T01:35:29.473Z,25.57
2018-11-23T01:37:58.101Z,25.83
2018-11-23T01:40:27.998Z,25.03
2018-11-23T01:42:56.778Z,25.17
2018-11-23T01:45:25.508Z,25.60
2018-11-23T01:47:54.373Z,25.83
2018-11-23T01:50:24.902Z,28.03
2018-11-23T01:52:53.699Z,25.63
2018-11-23T01:55:23.799Z,24.90
2018-11-23T01:57:52.353Z,24.73
2018-11-23T02:00:22.359Z,25.17
2018-11-23T02:02:51.608Z,25.10
2018-11-23T02:05:20.251Z,26.20
2018-11-23T02:07:48.800Z,25.57
2018-11-23T02:10:18.100Z,25.20
2018-11-23T02:12:46.749Z,24.03
2018-11-23T02:15:17.564Z,23.63
2018-11-23T02:17:46.771Z,22.73
2018-11-23T02:20:16.374Z,26.33
2018-11-23T02:22:44.837Z,25.70
2018-11-23T02:25:13.580Z,25.23
2018-11-23T02:27:42.321Z,25.33
2018-11-23T02:30:14.766Z,25.00
2018-11-23T02:32:43.812Z,24.83
2018-11-23T02:35:12.689Z,25.83
2018-11-23T02:37:41.185Z,25.97
2018-11-23T02:40:10.983Z,24.43
2018-11-23T02:42:39.914Z,23.37
2018-11-23T02:45:12.102Z,24.37
2018-11-23T02:47:41.247Z,21.90
2018-11-23T02:50:09.725Z,25.20
2018-11-23T02:52:39.046Z,23.57
2018-11-23T02:55:08.313Z,22.80
2018-11-23T02:57:36.934Z,23.63
2018-11-23T03:00:07.601Z,24.20
2018-11-23T03:02:36.037Z,23.40
2018-11-23T03:05:04.764Z,25.43
2018-11-23T03:07:33.411Z,25.13
2018-11-23T03:10:01.960Z,23.83
2018-11-23T03:12:30.374Z,25.53
2018-11-23T03:14:58.975Z,25.90
2018-11-23T03:17:27.619Z,25.43
2018-11-23T03:19:56.055Z,25.73
2018-11-23T03:22:24.604Z,23.20
2018-11-23T03:24:53.152Z,22.30
2018-11-23T03:27:21.728Z,22.50
2018-11-23T03:29:50.238Z,25.03
2018-11-23T03:32:18.798Z,23.60
2018-11-23T03:34:47.346Z,24.00
2018-11-23T03:37:15.902Z,22.83
2018-11-23T03:39:44.462Z,21.27
2018-11-23T03:42:13.102Z,22.67
2018-11-23T03:44:41.613Z,20.73
2018-11-23T03:47:10.069Z,22.53
2018-11-23T03:49:38.783Z,21.43
2018-11-23T03:52:07.727Z,22.33
2018-11-23T03:54:36.216Z,22.93
2018-11-23T03:57:04.933Z,22.53
2018-11-23T03:59:33.459Z,24.60
2018-11-23T04:02:02.121Z,24.40
2018-11-23T04:04:30.749Z,24.13
2018-11-23T04:06:59.351Z,21.80
2018-11-23T04:09:27.881Z,22.43
2018-11-23T04:11:56.429Z,22.80
2018-11-23T04:14:24.977Z,24.43
2018-11-23T04:16:53.514Z,25.00
2018-11-23T04:19:22.070Z,24.33
2018-11-23T04:21:50.710Z,24.97
2018-11-23T04:24:19.277Z,25.33
2018-11-23T04:26:47.851Z,22.57
2018-11-23T04:29:16.328Z,25.90
2018-11-23T04:31:45.146Z,25.53
2018-11-23T04:34:13.900Z,25.30
2018-11-23T04:36:42.505Z,24.73
2018-11-23T04:39:11.058Z,24.03
2018-11-23T04:41:46.026Z,22.17
2018-11-23T04:44:08.195Z,22.30
2018-11-23T04:46:36.696Z,22.63
2018-11-23T04:49:06.355Z,22.23
2018-11-23T04:51:35.112Z,21.47
2018-11-23T04:54:03.552Z,23.50
2018-11-23T04:56:32.406Z,22.67
2018-11-23T04:59:01.002Z,20.93
2018-11-23T05:01:29.652Z,21.60
2018-11-23T05:03:58.378Z,23.30
2018-11-23T05:06:27.052Z,22.47
2018-11-23T05:08:55.606Z,21.83
2018-11-23T05:11:24.070Z,21.20
2018-11-23T05:13:52.879Z,21.03
2018-11-23T05:16:21.371Z,20.00
2018-11-23T05:18:49.970Z,20.53
2018-11-23T05:21:18.572Z,23.77
2018-11-23T05:23:47.140Z,26.10
2018-11-23T05:26:15.647Z,26.53
2018-11-23T05:28:44.205Z,26.73
2018-11-23T05:31:12.814Z,24.43
2018-11-23T05:33:41.260Z,25.53
2018-11-23T05:36:09.843Z,24.53
2018-11-23T05:38:38.324Z,25.57
2018-11-23T05:41:13.527Z,24.93
2018-11-23T05:43:41.988Z,27.57
2018-11-23T05:46:10.608Z,27.53
2018-11-23T05:48:39.211Z,24.63
2018-11-23T05:51:07.769Z,27.03
2018-11-23T05:53:36.357Z,26.00
2018-11-23T05:56:05.315Z,24.33
2018-11-23T05:58:33.831Z,23.67
2018-11-23T06:01:02.350Z,23.60
2018-11-23T06:03:30.991Z,22.57
2018-11-23T06:06:06.935Z,22.13
2018-11-23T06:08:38.017Z,20.93
2018-11-23T06:11:06.819Z,23.03
2018-11-23T06:13:35.591Z,21.73
2018-11-23T06:16:04.181Z,22.40
2018-11-23T06:18:32.717Z,20.70
2018-11-23T06:21:01.396Z,19.77
2018-11-23T06:23:29.999Z,19.43
2018-11-23T06:26:33.844Z,20.37
2018-11-23T06:29:02.416Z,20.50
2018-11-23T06:31:30.883Z,19.70
2018-11-23T06:33:59.551Z,22.90
2018-11-23T06:36:36.002Z,21.47
2018-11-23T06:39:06.311Z,20.83
2018-11-23T06:41:34.845Z,24.43
2018-11-23T06:44:03.330Z,21.03
2018-11-23T06:46:31.769Z,22.20
2018-11-23T06:49:00.382Z,22.47
2018-11-23T06:51:29.292Z,20.87
2018-11-23T06:53:57.958Z,22.20
2018-11-23T06:56:31.930Z,23.27
2018-11-23T06:59:00.559Z,22.90
2018-11-23T07:01:29.532Z,22.23
2018-11-23T07:03:58.038Z,20.50
2018-11-23T07:06:26.737Z,21.47
2018-11-23T07:08:55.392Z,21.40
2018-11-23T07:11:23.896Z,19.10
2018-11-23T07:13:52.664Z,19.97
2018-11-23T07:16:21.122Z,18.63
2018-11-23T07:18:49.848Z,19.90
2018-11-23T07:21:21.499Z,20.07
2018-11-23T07:23:47.309Z,20.10
2018-11-23T07:26:15.944Z,22.97
2018-11-23T07:28:44.428Z,20.73
2018-11-23T07:31:13.094Z,20.30
2018-11-23T07:33:41.651Z,19.97
2018-11-23T07:36:10.343Z,19.70
2018-11-23T07:38:38.919Z,20.33
2018-11-23T07:41:18.627Z,20.63
2018-11-23T07:43:47.076Z,20.77
2018-11-23T07:46:15.752Z,18.70
2018-11-23T07:48:44.329Z,20.00
2018-11-23T07:51:13.163Z,19.93
2018-11-23T07:53:41.695Z,21.33
2018-11-23T07:56:10.182Z,20.27
2018-11-23T07:58:38.848Z,19.73
2018-11-23T08:01:07.561Z,20.20
2018-11-23T08:03:36.027Z,19.87
2018-11-23T08:06:04.663Z,19.03
2018-11-23T08:08:33.289Z,19.77
2018-11-23T08:11:06.449Z,21.03
2018-11-23T08:13:35.088Z,18.83
2018-11-23T08:16:03.529Z,19.90
2018-11-23T08:18:32.087Z,20.20
2018-11-23T08:21:00.588Z,21.03
2018-11-23T08:23:29.016Z,18.63
2018-11-23T08:25:57.614Z,20.77
2018-11-23T08:28:26.126Z,20.43
2018-11-23T08:30:54.643Z,20.43
2018-11-23T08:33:23.280Z,19.40
2018-11-23T08:35:51.788Z,19.97
2018-11-23T08:38:20.534Z,20.47
2018-11-23T08:40:49.025Z,19.30
2018-11-23T08:43:17.565Z,20.50
2018-11-23T08:45:46.228Z,19.00
2018-11-23T08:48:14.812Z,19.97
2018-11-23T08:50:43.397Z,18.93
2018-11-23T08:53:11.892Z,18.73
2018-11-23T08:55:40.444Z,20.67
2018-11-23T08:58:09.045Z,20.30
2018-11-23T09:00:37.822Z,20.63
2018-11-23T09:03:06.743Z,20.17
2018-11-23T09:05:35.190Z,20.13
2018-11-23T09:08:03.711Z,19.23
2018-11-23T09:10:32.274Z,20.67
2018-11-23T09:13:02.478Z,19.50
2018-11-23T09:15:31.104Z,21.30
2018-11-23T09:17:59.686Z,20.47
2018-11-23T09:20:28.153Z,18.40
2018-11-23T09:22:56.741Z,19.17
2018-11-23T09:25:25.580Z,19.40
2018-11-23T09:27:54.477Z,18.93
2018-11-23T09:30:24.337Z,20.67
2018-11-23T09:32:53.771Z,18.97
2018-11-23T09:35:22.648Z,19.00
2018-11-23T09:37:51.420Z,19.53
2018-11-23T09:40:21.579Z,20.00
2018-11-23T09:42:50.245Z,19.67
2018-11-23T09:45:20.284Z,19.13
2018-11-23T09:47:49.691Z,18.80
2018-11-23T09:50:19.973Z,21.30
2018-11-23T09:52:50.165Z,20.13
2018-11-23T09:55:19.211Z,20.37
2018-11-23T09:57:47.636Z,20.77
2018-11-23T10:00:18.327Z,19.87
2018-11-23T10:02:48.056Z,19.00
2018-11-23T10:05:17.124Z,19.07
2018-11-23T10:07:47.857Z,19.27
2018-11-23T10:10:17.268Z,21.60
2018-11-23T10:12:45.919Z,20.23
2018-11-23T10:15:15.870Z,18.67
2018-11-23T10:17:44.663Z,19.37
2018-11-23T10:20:19.134Z,20.67
2018-11-23T10:22:48.624Z,20.17
2018-11-23T10:25:18.870Z,21.03
2018-11-23T10:27:47.714Z,20.07
2018-11-23T10:30:18.331Z,21.77
2018-11-23T10:32:48.018Z,19.27
2018-11-23T10:35:17.726Z,19.60
2018-11-23T10:37:47.607Z,18.07
2018-11-23T10:40:18.682Z,19.33
2018-11-23T10:42:47.232Z,20.27
2018-11-23T10:45:18.784Z,19.33
2018-11-23T10:47:47.697Z,19.87
2018-11-23T10:50:18.755Z,19.60
2018-11-23T10:52:47.959Z,19.73
2018-11-23T10:55:18.850Z,19.47
2018-11-23T10:57:47.489Z,20.33
2018-11-23T11:00:22.980Z,19.83
2018-11-23T11:02:57.909Z,20.60
2018-11-23T11:05:31.994Z,20.80
2018-11-23T11:08:02.116Z,20.93
2018-11-23T11:10:31.609Z,19.77
2018-11-23T11:13:00.038Z,21.43
2018-11-23T11:15:28.535Z,21.43
2018-11-23T11:17:57.105Z,20.50
2018-11-23T11:20:25.741Z,22.03
2018-11-23T11:22:54.299Z,19.83
2018-11-23T11:25:22.943Z,20.33
2018-11-23T11:27:52.337Z,18.47
2018-11-23T11:30:21.175Z,18.90
2018-11-23T11:32:50.263Z,18.83
2018-11-23T11:35:18.876Z,18.33
2018-11-23T11:37:47.387Z,21.90
2018-11-23T11:40:17.554Z,22.67
2018-11-23T11:42:46.238Z,23.13
2018-11-23T11:45:16.177Z,21.47
2018-11-23T11:47:45.566Z,22.40
2018-11-23T11:50:14.562Z,24.10
2018-11-23T11:52:44.376Z,22.43
2018-11-23T11:55:14.758Z,22.63
2018-11-23T11:57:43.908Z,22.00
2018-11-23T12:00:17.220Z,23.27
2018-11-23T12:02:46.310Z,23.70
2018-11-23T12:05:15.056Z,21.50
2018-11-23T12:07:43.504Z,23.90
2018-11-23T12:10:15.484Z,23.30
2018-11-23T12:12:43.991Z,23.27
2018-11-23T12:15:13.777Z,24.63
2018-11-23T12:17:42.719Z,23.93
2018-11-23T12:20:14.397Z,24.13
2018-11-23T12:22:43.069Z,23.17
2018-11-23T12:25:11.810Z,25.10
2018-11-23T12:27:40.310Z,23.73
2018-11-23T12:30:12.473Z,24.53
2018-11-23T12:32:42.099Z,24.73
2018-11-23T12:35:11.849Z,25.80
2018-11-23T12:37:40.826Z,24.47
2018-11-23T12:40:11.319Z,25.33
2018-11-23T12:42:39.951Z,25.40
2018-11-23T12:45:10.716Z,26.53
2018-11-23T12:47:39.591Z,29.33
2018-11-23T12:50:12.402Z,31.63
2018-11-23T12:52:40.955Z,29.97
2018-11-23T12:55:10.664Z,30.10
2018-11-23T12:57:39.496Z,30.50
2018-11-23T13:00:13.018Z,26.53
2018-11-23T13:02:41.664Z,27.53
2018-11-23T13:05:10.136Z,25.77
2018-11-23T13:07:38.795Z,26.37
2018-11-23T13:10:07.678Z,26.40
2018-11-23T13:12:36.200Z,23.07
2018-11-23T13:15:04.898Z,26.00
2018-11-23T13:17:33.448Z,23.87
2018-11-23T13:20:02.059Z,26.77
2018-11-23T13:22:30.894Z,26.87
2018-11-23T13:24:59.356Z,25.13
2018-11-23T13:27:27.900Z,25.53
2018-11-23T13:29:56.643Z,24.27
2018-11-23T13:32:25.085Z,24.70
2018-11-23T13:34:53.659Z,23.50
2018-11-23T13:37:22.219Z,24.50
2018-11-23T13:39:51.374Z,24.40
2018-11-23T13:42:19.927Z,24.30
2018-11-23T13:44:48.363Z,23.50
2018-11-23T13:47:16.919Z,21.73
2018-11-23T13:49:45.483Z,22.70
2018-11-23T13:52:14.048Z,21.03
2018-11-23T13:54:42.721Z,26.73
2018-11-23T13:57:11.213Z,25.03
2018-11-23T13:59:40.607Z,25.20
2018-11-23T14:02:09.067Z,23.40
2018-11-23T14:04:37.733Z,23.20
2018-11-23T14:07:06.251Z,24.70
2018-11-23T14:09:34.729Z,24.33
2018-11-23T14:12:03.141Z,21.00
2018-11-23T14:14:31.807Z,24.10
2018-11-23T14:17:00.656Z,25.23
2018-11-23T14:19:29.313Z,26.17
2018-11-23T14:21:57.927Z,26.27
2018-11-23T14:24:26.419Z,25.97
2018-11-23T14:26:55.032Z,26.50
2018-11-23T14:29:23.552Z,26.83
2018-11-23T14:31:52.266Z,24.77
2018-11-23T14:34:20.820Z,26.43
2018-11-23T14:36:49.582Z,26.43
2018-11-23T14:39:18.260Z,28.07
2018-11-23T14:41:46.834Z,27.67
2018-11-23T14:44:15.458Z,23.03
2018-11-23T14:46:44.286Z,24.07
2018-11-23T14:49:13.012Z,25.00
2018-11-23T14:51:41.572Z,25.80
2018-11-23T14:54:10.022Z,26.13
2018-11-23T14:56:38.996Z,24.17
2018-11-23T14:59:07.773Z,25.50
2018-11-23T15:01:36.416Z,24.60
2018-11-23T15:04:04.912Z,22.90
2018-11-23T15:06:33.674Z,24.60
2018-11-23T15:09:02.155Z,23.73
2018-11-23T15:11:30.879Z,24.57
2018-11-23T15:13:59.321Z,25.10
2018-11-23T15:16:27.980Z,26.80
2018-11-23T15:18:56.495Z,25.87
2018-11-23T15:21:25.295Z,22.97
2018-11-23T15:23:54.128Z,23.70
2018-11-23T15:26:23.289Z,25.20
2018-11-23T15:28:52.399Z,25.77
2018-11-23T15:31:20.960Z,25.63
2018-11-23T15:33:49.535Z,25.00
2018-11-23T15:36:18.130Z,23.67
2018-11-23T15:38:46.603Z,28.13
2018-11-23T15:41:15.111Z,27.33
2018-11-23T15:43:43.709Z,26.77
2018-11-23T15:46:12.897Z,25.60
2018-11-23T15:48:41.461Z,26.10
2018-11-23T15:51:10.886Z,28.23
2018-11-23T15:53:39.400Z,28.83
2018-11-23T15:56:08.056Z,26.90
2018-11-23T15:58:36.627Z,28.73
2018-11-23T16:01:05.368Z,26.40
2018-11-23T16:03:34.113Z,28.10
2018-11-23T16:06:03.145Z,27.27
2018-11-23T16:08:31.778Z,26.90
2018-11-23T16:11:00.366Z,27.83
2018-11-23T16:13:28.939Z,26.10
2018-11-23T16:15:57.533Z,26.50
2018-11-23T16:18:26.081Z,25.80
2018-11-23T16:20:54.666Z,24.70
2018-11-23T16:23:23.186Z,26.43
2018-11-23T16:25:52.282Z,26.83
2018-11-23T16:28:20.934Z,27.80
2018-11-23T16:30:50.763Z,26.63
2018-11-23T16:33:20.790Z,26.07
2018-11-23T16:35:49.353Z,24.60
2018-11-23T16:38:19.402Z,25.90
2018-11-23T16:40:52.724Z,28.27
2018-11-23T16:43:21.514Z,26.47
2018-11-23T16:45:50.056Z,26.13
2018-11-23T16:48:19.435Z,26.17
2018-11-23T16:50:47.918Z,25.97
2018-11-23T16:53:16.467Z,26.47
2018-11-23T16:55:45.124Z,26.10
2018-11-23T16:58:14.119Z,24.00
2018-11-23T17:00:44.107Z,24.63
2018-11-23T17:03:14.181Z,25.27
2018-11-23T17:05:44.496Z,26.53
2018-11-23T17:08:13.018Z,27.07
2018-11-23T17:10:41.451Z,25.03
2018-11-23T17:13:10.318Z,26.23
2018-11-23T17:15:38.935Z,27.30
2018-11-23T17:18:08.153Z,26.07
2018-11-23T17:20:37.321Z,25.37
2018-11-23T17:23:07.094Z,26.27
2018-11-23T17:25:35.657Z,26.47
2018-11-23T17:28:05.763Z,26.13
2018-11-23T17:30:35.103Z,23.27
2018-11-23T17:33:03.719Z,27.07
2018-11-23T17:35:32.349Z,24.50
2018-11-23T17:38:00.882Z,25.70
2018-11-23T17:40:31.174Z,24.30
2018-11-23T17:43:00.452Z,24.60
2018-11-23T17:45:31.057Z,25.37
2018-11-23T17:48:01.167Z,24.23
2018-11-23T17:50:31.178Z,24.67
2018-11-23T17:53:00.359Z,25.60
2018-11-23T17:55:29.596Z,26.27
2018-11-23T17:57:58.533Z,25.27
2018-11-23T18:00:28.546Z,26.33
2018-11-23T18:02:57.974Z,27.67
2018-11-23T18:05:27.146Z,24.50
2018-11-23T18:07:56.106Z,24.40
2018-11-23T18:10:25.874Z,25.23
2018-11-23T18:12:55.264Z,26.40
2018-11-23T18:15:25.187Z,27.33
2018-11-23T18:17:54.584Z,28.10
2018-11-23T18:20:24.312Z,25.90
2018-11-23T18:22:54.490Z,25.87
2018-11-23T18:25:24.675Z,25.97
2018-11-23T18:27:58.556Z,27.87
2018-11-23T18:30:27.418Z,27.13
2018-11-23T18:32:55.934Z,27.77
2018-11-23T18:35:24.503Z,26.37
2018-11-23T18:37:53.260Z,28.07
2018-11-23T18:40:21.725Z,26.50
2018-11-23T18:42:50.429Z,27.73
2018-11-23T18:45:19.135Z,28.97
2018-11-23T18:47:47.797Z,28.03
2018-11-23T18:50:17.643Z,30.73
2018-11-23T18:52:46.283Z,27.00
2018-11-23T18:55:18.077Z,27.37
2018-11-23T18:57:44.287Z,27.40
2018-11-23T19:00:14.874Z,27.00
2018-11-23T19:02:44.656Z,26.03
2018-11-23T19:05:19.774Z,29.27
2018-11-23T19:07:48.333Z,29.97
2018-11-23T19:10:17.559Z,26.90
2018-11-23T19:12:46.232Z,28.67
2018-11-23T19:15:15.964Z,27.50
2018-11-23T19:17:44.505Z,28.63
2018-11-23T19:20:16.122Z,28.03
2018-11-23T19:22:46.796Z,27.73
2018-11-23T19:25:15.679Z,30.47
2018-11-23T19:27:44.334Z,28.40
2018-11-23T19:30:14.200Z,30.87
2018-11-23T19:32:42.780Z,28.23
2018-11-23T19:35:11.403Z,29.13
2018-11-23T19:37:40.065Z,29.17
2018-11-23T19:40:11.102Z,28.17
2018-11-23T19:42:40.110Z,29.27
2018-11-23T19:45:12.953Z,28.90
2018-11-23T19:47:41.659Z,28.90
2018-11-23T19:50:14.174Z,27.73
2018-11-23T19:52:43.402Z,28.77
2018-11-23T19:55:13.256Z,30.33
2018-11-23T19:57:41.855Z,29.87
2018-11-23T20:00:14.493Z,28.10
2018-11-23T20:02:43.191Z,28.10
2018-11-23T20:05:11.784Z,29.90
2018-11-23T20:07:40.325Z,27.17
2018-11-23T20:10:12.439Z,29.20
2018-11-23T20:12:41.045Z,29.67
2018-11-23T20:15:12.445Z,30.33
2018-11-23T20:17:41.529Z,30.20
2018-11-23T20:20:11.827Z,29.73
2018-11-23T20:22:40.505Z,27.57
2018-11-23T20:25:13.829Z,26.90
2018-11-23T20:27:43.690Z,28.47
2018-11-23T20:30:13.574Z,28.53
2018-11-23T20:32:43.351Z,29.13
2018-11-23T20:35:13.262Z,29.80
2018-11-23T20:37:44.805Z,28.87
2018-11-23T20:40:16.368Z,28.93
2018-11-23T20:42:45.048Z,28.53
2018-11-23T20:45:14.126Z,29.83
2018-11-23T20:47:42.688Z,28.93
2018-11-23T20:50:13.277Z,28.40
2018-11-23T20:52:42.616Z,29.53
2018-11-23T20:55:13.072Z,31.93
2018-11-23T20:57:41.803Z,28.83
2018-11-23T21:00:13.517Z,32.87
2018-11-23T21:02:42.499Z,30.53
2018-11-23T21:05:12.577Z,33.17
2018-11-23T21:07:41.256Z,30.70
2018-11-23T21:10:21.539Z,30.43
2018-11-23T21:12:50.235Z,29.83
2018-11-23T21:15:22.614Z,30.67
2018-11-23T21:17:51.281Z,29.90
2018-11-23T21:20:20.078Z,32.47
2018-11-23T21:22:48.566Z,29.93
2018-11-23T21:25:17.111Z,30.63
2018-11-23T21:27:45.743Z,31.10
2018-11-23T21:30:15.602Z,31.53
2018-11-23T21:32:44.276Z,29.80
2018-11-23T21:35:13.446Z,30.43
2018-11-23T21:37:42.009Z,29.00
2018-11-23T21:40:12.557Z,31.13
2018-11-23T21:42:41.109Z,29.80
2018-11-23T21:45:12.651Z,31.13
2018-11-23T21:47:41.787Z,32.77
2018-11-23T21:50:13.469Z,29.97
2018-11-23T21:52:42.069Z,31.13
2018-11-23T21:55:14.875Z,30.73
2018-11-23T21:57:43.406Z,30.40
2018-11-23T22:00:13.732Z,31.00
2018-11-23T22:02:42.478Z,31.13
2018-11-23T22:05:11.643Z,30.60
2018-11-23T22:07:40.252Z,33.13
2018-11-23T22:10:15.397Z,31.63
2018-11-23T22:12:43.967Z,31.10
2018-11-23T22:15:15.166Z,29.20
2018-11-23T22:17:43.730Z,30.20
2018-11-23T22:20:13.500Z,29.50
2018-11-23T22:22:42.160Z,29.60
2018-11-23T22:25:12.066Z,29.40
2018-11-23T22:27:40.714Z,27.43
2018-11-23T22:30:17.649Z,30.67
2018-11-23T22:32:46.386Z,29.00
2018-11-23T22:35:15.115Z,29.83
2018-11-23T22:37:43.682Z,31.03
2018-11-23T22:40:16.497Z,29.73
2018-11-23T22:42:46.445Z,27.33
2018-11-23T22:45:16.170Z,28.03
2018-11-23T22:47:44.770Z,28.53
2018-11-23T22:50:15.573Z,29.43
2018-11-23T22:52:44.043Z,28.50
2018-11-23T22:55:13.509Z,28.43
2018-11-23T22:57:41.986Z,28.63
2018-11-23T23:00:16.784Z,28.47
2018-11-23T23:02:45.479Z,27.97
2018-11-23T23:05:14.034Z,29.27
2018-11-23T23:07:43.046Z,29.17
2018-11-23T23:10:11.582Z,26.23
2018-11-23T23:12:40.591Z,26.27
2018-11-23T23:15:10.636Z,24.90
2018-11-23T23:17:39.445Z,26.67
2018-11-23T23:20:10.413Z,27.77
2018-11-23T23:22:39.195Z,26.23
2018-11-23T23:25:09.061Z,27.93
2018-11-23T23:27:37.713Z,26.20
2018-11-23T23:30:10.637Z,26.93
2018-11-23T23:32:39.544Z,27.20
2018-11-23T23:35:09.344Z,26.57
2018-11-23T23:37:38.366Z,28.10
2018-11-23T23:40:09.676Z,27.30
2018-11-23T23:42:38.160Z,25.37
2018-11-23T23:45:15.554Z,27.80
2018-11-23T23:47:44.143Z,26.00
2018-11-23T23:50:21.249Z,25.60
2018-11-23T23:52:50.685Z,22.70
2018-11-23T23:55:19.540Z,25.13
2018-11-23T23:57:48.700Z,25.37
